Time;durP1;ratioP1;P1;durP2;ratioP2;P2;SDS_P1;SDS_P2;PMS_P1;PMS_P2;Temp;Humidity;BMP_temperature;BMP_pressure;BME280_temperature;BME280_humidity;BME280_pressure;Samples;Min_cycle;Max_cycle;Signal;HPM_P1;HPM_P2
2023/02/06 00:00:11;;;;;;;;;;;;;;;;;;4993607;28;19921;-75
2023/02/06 00:02:37;;;;;;;;;;;;;;;;;;4992275;28;19932;-75
2023/02/06 00:05:03;;;;;;;;;;;;;;;;;;4998659;28;19920;-75
2023/02/06 00:07:28;;;;;;;;;;;;;;;;;;4989044;28;20212;-75
2023/02/06 00:09:54;;;;;;;;;;;;;;;;;;4996434;28;19928;-75
2023/02/06 00:12:20;;;;;;;;;;;;;;;;;;5000201;28;19983;-75
2023/02/06 00:14:46;;;;;;;;;;;;;;;;;;4983727;28;20341;-74
2023/02/06 00:17:12;;;;;;;;;;;;;;;;;;5001219;28;19924;-74
2023/02/06 00:19:38;;;;;;;;;;;;;;;;;;5004459;28;19924;-74
2023/02/06 00:22:04;;;;;;;;;;;;;;;;;;5000552;28;19927;-73
2023/02/06 00:24:30;;;;;;;;;;;;;;;;;;5017305;28;20186;-74
2023/02/06 00:26:56;;;;;;;;;;;;;;;;;;5001846;28;19958;-73
2023/02/06 00:29:22;;;;;;;;;;;;;;;;;;4983493;28;19920;-74
2023/02/06 00:31:47;;;;;;;;;;;;;;;;;;5016658;28;19967;-73
2023/02/06 00:34:13;;;;;;;;;;;;;;;;;;4997599;28;20011;-73
2023/02/06 00:36:39;;;;;;;;;;;;;;;;;;5001002;28;20011;-74
2023/02/06 00:39:05;;;;;;;;;;;;;;;;;;5002862;28;19917;-74
2023/02/06 00:41:31;;;;;;;;;;;;;;;;;;5003011;28;19920;-73
2023/02/06 00:43:57;;;;;;;;;;;;;;;;;;4994618;28;19925;-73
2023/02/06 00:46:23;;;;;;;;;;;;;;;;;;4996202;28;19925;-73
2023/02/06 00:48:49;;;;;;;;;;;;;;;;;;4995931;28;19983;-73
2023/02/06 00:51:15;;;;;;;;;;;;;;;;;;4995543;28;19990;-73
2023/02/06 00:53:41;;;;;;;;;;;;;;;;;;4997784;28;19927;-73
2023/02/06 00:56:07;;;;;;;;;;;;;;;;;;4990187;28;19925;-73
2023/02/06 00:58:32;;;;;;;;;;;;;;;;;;5010291;28;20295;-74
2023/02/06 01:00:58;;;;;;;;;;;;;;;;;;4975435;28;19960;-73
2023/02/06 01:03:24;;;;;;;;;;;;;;;;;;5012013;28;20379;-73
2023/02/06 01:05:50;;;;;;;;;;;;;;;;;;4997074;28;19927;-73
2023/02/06 01:08:16;;;;;;;;;;;;;;;;;;4997832;28;20357;-74
2023/02/06 01:10:42;;;;;;;;;;;;;;;;;;4995526;28;19929;-73
2023/02/06 01:13:08;;;;;;;;;;;;;;;;;;4993919;28;20428;-74
2023/02/06 01:15:34;;;;;;;;;;;;;;;;;;4992522;28;20381;-74
2023/02/06 01:18:00;;;;;;;;;;;;;;;;;;4994490;28;19925;-73
2023/02/06 01:20:26;;;;;;;;;;;;;;;;;;4996063;28;20755;-73
2023/02/06 01:22:52;;;;;;;;;;;;;;;;;;4998618;28;19921;-73
2023/02/06 01:25:18;;;;;;;;;;;;;;;;;;4998169;28;19960;-74
2023/02/06 01:27:43;;;;;;;;;;;;;;;;;;4981969;28;20004;-74
2023/02/06 01:30:10;;;;;;;;;;;;;;;;;;4992335;28;19929;-73
2023/02/06 01:32:35;;;;;;;;;;;;;;;;;;4991220;28;19921;-74
2023/02/06 01:35:01;;;;;;;;;;;;;;;;;;4992399;28;19923;-73
2023/02/06 01:37:27;;;;;;;;;;;;;;;;;;5004471;28;19936;-73
2023/02/06 01:39:53;;;;;;;;;;;;;;;;;;4995475;28;20276;-74
2023/02/06 01:42:19;;;;;;;;;;;;;;;;;;4990342;28;19935;-73
2023/02/06 01:44:45;;;;;;;;;;;;;;;;;;4993415;28;19922;-73
2023/02/06 01:47:11;;;;;;;;;;;;;;;;;;4992943;28;19917;-73
2023/02/06 01:49:37;;;;;;;;;;;;;;;;;;4996774;28;19974;-73
2023/02/06 01:52:03;;;;;;;;;;;;;;;;;;5010809;28;20295;-73
2023/02/06 01:54:29;;;;;;;;;;;;;;;;;;4992965;28;20208;-73
2023/02/06 01:56:55;;;;;;;;;;;;;;;;;;4991131;28;19921;-73
2023/02/06 01:59:20;;;;;;;;;;;;;;;;;;4995122;28;19932;-74
2023/02/06 02:01:46;;;;;;;;;;;;;;;;;;4992646;28;19948;-73
2023/02/06 02:04:12;;;;;;;;;;;;;;;;;;4994252;28;20007;-73
2023/02/06 02:06:38;;;;;;;;;;;;;;;;;;5013314;28;19916;-73
2023/02/06 02:09:04;;;;;;;;;;;;;;;;;;4992169;28;20433;-74
2023/02/06 02:11:30;;;;;;;;;;;;;;;;;;4992846;28;19971;-74
2023/02/06 02:13:56;;;;;;;;;;;;;;;;;;4992407;28;19963;-73
2023/02/06 02:16:22;;;;;;;;;;;;;;;;;;4999331;28;19992;-74
2023/02/06 02:18:48;;;;;;;;;;;;;;;;;;4997262;28;20454;-74
2023/02/06 02:21:14;;;;;;;;;;;;;;;;;;4983715;28;19925;-74
2023/02/06 02:23:39;;;;;;;;;;;;;;;;;;4997247;28;20035;-74
2023/02/06 02:26:05;;;;;;;;;;;;;;;;;;4997556;28;19925;-73
2023/02/06 02:28:31;;;;;;;;;;;;;;;;;;5014406;28;20371;-74
2023/02/06 02:30:57;;;;;;;;;;;;;;;;;;5011980;28;19916;-74
2023/02/06 02:33:23;;;;;;;;;;;;;;;;;;5001804;28;20003;-73
2023/02/06 02:35:49;;;;;;;;;;;;;;;;;;4999848;28;20435;-73
2023/02/06 02:38:15;;;;;;;;;;;;;;;;;;5002245;28;20008;-73
2023/02/06 02:40:41;;;;;;;;;;;;;;;;;;4998826;28;19960;-74
2023/02/06 02:43:07;;;;;;;;;;;;;;;;;;5019861;28;20032;-74
2023/02/06 02:45:33;;;;;;;;;;;;;;;;;;4992653;28;20303;-73
2023/02/06 02:47:59;;;;;;;;;;;;;;;;;;4985138;28;19925;-73
2023/02/06 02:50:25;;;;;;;;;;;;;;;;;;4979666;28;19925;-73
2023/02/06 02:52:50;;;;;;;;;;;;;;;;;;5011552;28;20315;-74
2023/02/06 02:55:16;;;;;;;;;;;;;;;;;;5010905;28;19921;-73
2023/02/06 02:57:42;;;;;;;;;;;;;;;;;;4975362;28;19925;-73
2023/02/06 03:00:08;;;;;;;;;;;;;;;;;;4991972;28;20434;-73
2023/02/06 03:02:34;;;;;;;;;;;;;;;;;;4988451;28;19929;-73
2023/02/06 03:05:00;;;;;;;;;;;;;;;;;;4992005;28;19929;-74
2023/02/06 03:07:26;;;;;;;;;;;;;;;;;;5012030;28;21848;-74
2023/02/06 03:09:52;;;;;;;;;;;;;;;;;;4995927;28;19936;-73
2023/02/06 03:12:19;;;;;;;;;;;;;;;;;;4994457;28;19923;-73
2023/02/06 03:14:44;;;;;;;;;;;;;;;;;;5005709;28;19925;-73
2023/02/06 03:17:10;;;;;;;;;;;;;;;;;;4991580;28;19991;-74
2023/02/06 03:19:36;;;;;;;;;;;;;;;;;;4996049;28;19925;-74
2023/02/06 03:22:02;;;;;;;;;;;;;;;;;;4996419;28;20308;-74
2023/02/06 03:24:28;;;;;;;;;;;;;;;;;;5010970;28;19917;-73
2023/02/06 03:26:54;;;;;;;;;;;;;;;;;;4995612;28;20405;-74
2023/02/06 03:29:20;;;;;;;;;;;;;;;;;;4995234;28;20051;-73
2023/02/06 03:31:46;;;;;;;;;;;;;;;;;;4972688;28;19921;-74
2023/02/06 03:34:12;;;;;;;;;;;;;;;;;;4991652;28;19924;-74
2023/02/06 03:36:38;;;;;;;;;;;;;;;;;;4978337;28;19925;-73
2023/02/06 03:39:04;;;;;;;;;;;;;;;;;;4996803;28;19952;-74
2023/02/06 03:41:29;;;;;;;;;;;;;;;;;;4996055;28;21221;-73
2023/02/06 03:43:55;;;;;;;;;;;;;;;;;;4998870;28;19972;-74
2023/02/06 03:46:21;;;;;;;;;;;;;;;;;;4991789;28;20012;-74
2023/02/06 03:48:47;;;;;;;;;;;;;;;;;;5001355;28;19983;-74
2023/02/06 03:51:13;;;;;;;;;;;;;;;;;;5014616;28;20535;-74
2023/02/06 03:53:39;;;;;;;;;;;;;;;;;;4995994;28;20525;-74
2023/02/06 03:56:05;;;;;;;;;;;;;;;;;;4977695;28;20007;-74
2023/02/06 03:58:31;;;;;;;;;;;;;;;;;;5008929;28;19925;-74
2023/02/06 04:00:57;;;;;;;;;;;;;;;;;;4997745;28;19925;-73
2023/02/06 04:03:22;;;;;;;;;;;;;;;;;;4995301;28;20379;-74
2023/02/06 04:05:48;;;;;;;;;;;;;;;;;;4996107;28;19925;-73
2023/02/06 04:08:14;;;;;;;;;;;;;;;;;;4983686;28;19921;-74
2023/02/06 04:10:40;;;;;;;;;;;;;;;;;;4995796;28;20316;-73
2023/02/06 04:13:06;;;;;;;;;;;;;;;;;;4994843;28;19967;-74
2023/02/06 04:15:32;;;;;;;;;;;;;;;;;;4999778;28;19975;-74
2023/02/06 04:17:58;;;;;;;;;;;;;;;;;;5002634;28;20031;-73
2023/02/06 04:20:24;;;;;;;;;;;;;;;;;;4996177;28;19925;-74
2023/02/06 04:22:50;;;;;;;;;;;;;;;;;;4982375;28;20007;-74
2023/02/06 04:25:16;;;;;;;;;;;;;;;;;;5004187;28;19917;-74
2023/02/06 04:27:42;;;;;;;;;;;;;;;;;;4981612;28;19924;-74
2023/02/06 04:30:07;;;;;;;;;;;;;;;;;;5001060;28;19921;-73
2023/02/06 04:32:33;;;;;;;;;;;;;;;;;;5001837;28;19924;-74
2023/02/06 04:34:59;;;;;;;;;;;;;;;;;;4998534;28;19925;-73
2023/02/06 04:37:25;;;;;;;;;;;;;;;;;;4999979;28;20044;-73
2023/02/06 04:39:51;;;;;;;;;;;;;;;;;;5002475;28;20063;-73
2023/02/06 04:42:17;;;;;;;;;;;;;;;;;;5001816;28;19982;-73
2023/02/06 04:44:44;;;;;;;;;;;;;;;;;;4998361;28;19917;-73
2023/02/06 04:47:10;;;;;;;;;;;;;;;;;;4980425;28;19982;-74
2023/02/06 04:49:36;;;;;;;;;;;;;;;;;;5004914;28;19933;-74
2023/02/06 04:52:02;;;;;;;;;;;;;;;;;;4992903;28;20324;-74
2023/02/06 04:54:27;;;;;;;;;;;;;;;;;;4985111;28;19937;-74
2023/02/06 04:56:53;;;;;;;;;;;;;;;;;;4992389;28;19951;-74
2023/02/06 04:59:19;;;;;;;;;;;;;;;;;;4973901;28;19983;-73
2023/02/06 05:01:45;;;;;;;;;;;;;;;;;;4988494;28;20042;-73
2023/02/06 05:04:11;;;;;;;;;;;;;;;;;;4986574;28;19925;-74
2023/02/06 05:06:37;;;;;;;;;;;;;;;;;;4991205;28;19925;-74
2023/02/06 05:09:03;;;;;;;;;;;;;;;;;;4968846;28;22628;-74
2023/02/06 05:11:29;;;;;;;;;;;;;;;;;;4991507;28;19924;-74
2023/02/06 05:13:55;;;;;;;;;;;;;;;;;;5009161;28;19925;-74
2023/02/06 05:16:21;;;;;;;;;;;;;;;;;;4991130;28;19925;-74
2023/02/06 05:18:47;;;;;;;;;;;;;;;;;;4984120;28;19971;-73
2023/02/06 05:21:12;;;;;;;;;;;;;;;;;;4996942;28;19979;-74
2023/02/06 05:23:38;;;;;;;;;;;;;;;;;;4986773;28;19921;-74
2023/02/06 05:26:04;;;;;;;;;;;;;;;;;;4988288;28;20489;-73
2023/02/06 05:28:32;;;;;;;;;;;;;;;;;;4982718;28;19929;-73
2023/02/06 05:30:58;;;;;;;;;;;;;;;;;;4986499;28;19929;-73
2023/02/06 05:33:24;;;;;;;;;;;;;;;;;;4990014;28;19947;-73
2023/02/06 05:35:50;;;;;;;;;;;;;;;;;;4985835;28;20391;-74
2023/02/06 05:38:15;;;;;;;;;;;;;;;;;;4989874;28;19925;-74
2023/02/06 05:40:41;;;;;;;;;;;;;;;;;;4985079;28;19925;-73
2023/02/06 05:43:07;;;;;;;;;;;;;;;;;;4984787;28;20322;-73
2023/02/06 05:45:33;;;;;;;;;;;;;;;;;;4974992;28;19955;-73
2023/02/06 05:47:59;;;;;;;;;;;;;;;;;;4989490;28;20366;-73
2023/02/06 05:50:25;;;;;;;;;;;;;;;;;;4991154;28;19975;-73
2023/02/06 05:52:51;;;;;;;;;;;;;;;;;;4988836;28;20315;-73
2023/02/06 05:55:17;;;;;;;;;;;;;;;;;;4994403;23;19930;-82
2023/02/06 05:57:43;;;;;;;;;;;;;;;;;;4955622;28;20344;-82
2023/02/06 06:00:09;;;;;;;;;;;;;;;;;;4984737;28;19988;-81
2023/02/06 06:02:35;;;;;;;;;;;;;;;;;;4973259;28;19956;-82
2023/02/06 06:05:00;;;;;;;;;;;;;;;;;;4960275;28;19961;-82
2023/02/06 06:07:26;;;;;;;;;;;;;;;;;;4947883;28;19926;-82
2023/02/06 06:09:52;;;;;;;;;;;;;;;;;;4954428;28;20479;-82
2023/02/06 06:12:18;;;;;;;;;;;;;;;;;;4951281;28;19924;-81
2023/02/06 06:14:44;;;;;;;;;;;;;;;;;;4950274;28;20261;-81
2023/02/06 06:17:10;;;;;;;;;;;;;;;;;;4970567;28;19921;-85
2023/02/06 06:19:36;;;;;;;;;;;;;;;;;;4954485;28;20672;-81
2023/02/06 06:22:02;;;;;;;;;;;;;;;;;;4947946;28;19924;-81
2023/02/06 06:24:28;;;;;;;;;;;;;;;;;;4951665;28;20060;-82
2023/02/06 06:26:54;;;;;;;;;;;;;;;;;;4939587;28;19926;-84
2023/02/06 06:29:20;;;;;;;;;;;;;;;;;;4951224;28;20335;-82
2023/02/06 06:31:46;;;;;;;;;;;;;;;;;;4965761;28;19925;-82
2023/02/06 06:34:11;;;;;;;;;;;;;;;;;;4950059;28;19918;-82
2023/02/06 06:36:38;;;;;;;;;;;;;;;;;;4966078;28;20410;-82
2023/02/06 06:39:03;;;;;;;;;;;;;;;;;;4950892;28;20060;-82
2023/02/06 06:41:29;;;;;;;;;;;;;;;;;;4946584;28;19922;-82
2023/02/06 06:43:55;;;;;;;;;;;;;;;;;;4980367;28;19926;-81
2023/02/06 06:46:21;;;;;;;;;;;;;;;;;;4949097;28;19922;-82
2023/02/06 06:48:47;;;;;;;;;;;;;;;;;;4965376;28;19941;-82
2023/02/06 06:51:13;;;;;;;;;;;;;;;;;;4987793;28;19984;-81
2023/02/06 06:53:39;;;;;;;;;;;;;;;;;;4983606;28;19976;-83
2023/02/06 06:56:05;;;;;;;;;;;;;;;;;;4949732;28;19925;-82
2023/02/06 06:58:31;;;;;;;;;;;;;;;;;;4951549;28;19926;-82
2023/02/06 07:00:57;;;;;;;;;;;;;;;;;;4954570;28;19936;-84
2023/02/06 07:03:23;;;;;;;;;;;;;;;;;;4955303;28;19921;-82
2023/02/06 07:05:48;;;;;;;;;;;;;;;;;;4971420;28;19929;-82
2023/02/06 07:08:14;;;;;;;;;;;;;;;;;;4957101;28;19926;-82
2023/02/06 07:10:40;;;;;;;;;;;;;;;;;;4959661;28;19937;-83
2023/02/06 07:13:06;;;;;;;;;;;;;;;;;;4962116;28;20450;-82
2023/02/06 07:15:32;;;;;;;;;;;;;;;;;;4966266;28;19925;-82
2023/02/06 07:17:58;;;;;;;;;;;;;;;;;;4966486;28;19925;-83
2023/02/06 07:20:24;;;;;;;;;;;;;;;;;;4964862;28;20307;-83
2023/02/06 07:22:50;;;;;;;;;;;;;;;;;;4963496;28;19924;-82
2023/02/06 07:25:16;;;;;;;;;;;;;;;;;;4966336;28;19932;-82
2023/02/06 07:27:42;;;;;;;;;;;;;;;;;;4962777;28;19925;-82
2023/02/06 07:30:08;;;;;;;;;;;;;;;;;;4965411;28;20648;-82
2023/02/06 07:32:34;;;;;;;;;;;;;;;;;;4976770;28;19924;-81
2023/02/06 07:34:59;;;;;;;;;;;;;;;;;;4984116;28;19925;-82
2023/02/06 07:37:25;;;;;;;;;;;;;;;;;;4977029;28;19922;-82
2023/02/06 07:39:51;;;;;;;;;;;;;;;;;;4958425;28;19964;-81
2023/02/06 07:42:17;;;;;;;;;;;;;;;;;;4975211;28;20372;-82
2023/02/06 07:44:43;;;;;;;;;;;;;;;;;;4970173;28;20032;-82
2023/02/06 07:47:09;;;;;;;;;;;;;;;;;;4962047;28;20012;-83
2023/02/06 07:49:35;;;;;;;;;;;;;;;;;;4964800;28;19959;-83
2023/02/06 07:52:01;;;;;;;;;;;;;;;;;;4966627;28;19925;-82
2023/02/06 07:54:27;;;;;;;;;;;;;;;;;;4960824;28;19917;-81
2023/02/06 07:56:53;;;;;;;;;;;;;;;;;;4959241;28;19928;-81
2023/02/06 07:59:19;;;;;;;;;;;;;;;;;;4960989;28;19949;-81
2023/02/06 08:01:45;;;;;;;;;;;;;;;;;;4958661;28;20092;-82
2023/02/06 08:04:11;;;;;;;;;;;;;;;;;;4981943;28;19917;-82
2023/02/06 08:06:36;;;;;;;;;;;;;;;;;;4960816;28;19925;-82
2023/02/06 08:09:04;;;;;;;;;;;;;;;;;;4992986;28;19928;-82
2023/02/06 08:11:30;;;;;;;;;;;;;;;;;;4962270;28;19924;-82
2023/02/06 08:13:56;;;;;;;;;;;;;;;;;;4994424;28;19926;-83
2023/02/06 08:16:22;;;;;;;;;;;;;;;;;;4959371;28;19969;-84
2023/02/06 08:18:48;;;;;;;;;;;;;;;;;;4975698;28;20009;-80
2023/02/06 08:21:14;;;;;;;;;;;;;;;;;;4960884;28;19918;-81
2023/02/06 08:23:40;;;;;;;;;;;;;;;;;;4968343;28;20650;-80
2023/02/06 08:26:06;;;;;;;;;;;;;;;;;;4979289;28;19917;-81
2023/02/06 08:28:34;;;;;;;;;;;;;;;;;;4965544;28;19926;-82
2023/02/06 08:30:59;;;;;;;;;;;;;;;;;;4959227;28;19936;-82
2023/02/06 08:33:25;;;;;;;;;;;;;;;;;;4977548;28;20301;-82
2023/02/06 08:35:51;;;;;;;;;;;;;;;;;;4961382;28;19924;-81
2023/02/06 08:38:17;;;;;;;;;;;;;;;;;;4961196;28;21226;-82
2023/02/06 08:40:43;;;;;;;;;;;;;;;;;;4977820;28;19953;-82
2023/02/06 08:43:09;;;;;;;;;;;;;;;;;;4976869;28;19983;-81
2023/02/06 08:45:35;;;;;;;;;;;;;;;;;;4948989;28;20259;-81
2023/02/06 08:48:01;;;;;;;;;;;;;;;;;;4962668;28;20284;-81
2023/02/06 08:50:27;;;;;;;;;;;;;;;;;;4962011;28;19984;-81
2023/02/06 08:52:53;;;;;;;;;;;;;;;;;;4960473;28;19921;-81
2023/02/06 08:55:19;;;;;;;;;;;;;;;;;;4962613;28;19926;-81
2023/02/06 08:57:45;;;;;;;;;;;;;;;;;;4961048;28;20391;-81
2023/02/06 09:00:11;;;;;;;;;;;;;;;;;;4961975;28;19926;-82
2023/02/06 09:02:37;;;;;;;;;;;;;;;;;;4958690;28;19922;-82
2023/02/06 09:05:03;;;;;;;;;;;;;;;;;;4961466;28;19918;-82
2023/02/06 09:07:29;;;;;;;;;;;;;;;;;;4994582;28;20001;-82
2023/02/06 09:09:55;;;;;;;;;;;;;;;;;;4962399;28;19922;-81
2023/02/06 09:12:21;;;;;;;;;;;;;;;;;;4950128;28;19924;-82
2023/02/06 09:14:47;;;;;;;;;;;;;;;;;;4958711;28;20431;-82
2023/02/06 09:17:13;;;;;;;;;;;;;;;;;;4960110;28;20354;-82
2023/02/06 09:19:39;;;;;;;;;;;;;;;;;;4957537;28;19925;-82
2023/02/06 09:22:05;;;;;;;;;;;;;;;;;;4975664;28;19941;-82
2023/02/06 09:24:31;;;;;;;;;;;;;;;;;;4960183;28;20261;-81
2023/02/06 09:26:57;;;;;;;;;;;;;;;;;;4960555;28;19933;-82
2023/02/06 09:29:22;;;;;;;;;;;;;;;;;;4959238;28;19922;-82
2023/02/06 09:31:48;;;;;;;;;;;;;;;;;;4990555;28;20027;-82
2023/02/06 09:34:14;;;;;;;;;;;;;;;;;;4974324;28;20269;-82
2023/02/06 09:36:40;;;;;;;;;;;;;;;;;;4960763;28;20429;-82
2023/02/06 09:39:06;;;;;;;;;;;;;;;;;;4955764;28;19925;-81
2023/02/06 09:41:32;;;;;;;;;;;;;;;;;;4959601;28;19925;-82
2023/02/06 09:43:58;;;;;;;;;;;;;;;;;;4971501;28;19925;-82
2023/02/06 09:46:26;;;;;;;;;;;;;;;;;;4959193;28;19921;-82
2023/02/06 09:48:52;;;;;;;;;;;;;;;;;;4954752;28;19937;-81
2023/02/06 09:51:17;;;;;;;;;;;;;;;;;;4961134;28;20455;-81
2023/02/06 09:53:43;;;;;;;;;;;;;;;;;;4958139;28;19933;-82
2023/02/06 09:56:09;;;;;;;;;;;;;;;;;;4993240;28;20148;-82
2023/02/06 09:58:35;;;;;;;;;;;;;;;;;;4965286;28;19932;-82
2023/02/06 10:01:01;;;;;;;;;;;;;;;;;;4973410;28;19936;-82
2023/02/06 10:03:27;;;;;;;;;;;;;;;;;;4959131;28;19922;-82
2023/02/06 10:05:53;;;;;;;;;;;;;;;;;;4960862;28;19925;-83
2023/02/06 10:08:19;;;;;;;;;;;;;;;;;;4950246;28;20000;-82
2023/02/06 10:10:45;;;;;;;;;;;;;;;;;;4970716;28;19922;-81
2023/02/06 10:13:11;;;;;;;;;;;;;;;;;;4960988;28;19926;-82
2023/02/06 10:15:37;;;;;;;;;;;;;;;;;;4948949;28;20292;-82
2023/02/06 10:18:03;;;;;;;;;;;;;;;;;;4967715;28;19924;-82
2023/02/06 10:20:28;;;;;;;;;;;;;;;;;;4987270;28;20008;-82
2023/02/06 10:22:54;;;;;;;;;;;;;;;;;;4966968;28;19918;-81
2023/02/06 10:25:21;;;;;;;;;;;;;;;;;;4952318;28;19924;-81
2023/02/06 10:27:46;;;;;;;;;;;;;;;;;;4953080;28;19932;-82
2023/02/06 10:30:12;;;;;;;;;;;;;;;;;;4968320;28;19979;-81
2023/02/06 10:32:38;;;;;;;;;;;;;;;;;;4963334;28;19918;-82
2023/02/06 10:35:04;;;;;;;;;;;;;;;;;;4968868;28;19926;-82
2023/02/06 10:37:30;;;;;;;;;;;;;;;;;;4965344;28;19988;-82
2023/02/06 10:39:56;;;;;;;;;;;;;;;;;;4951611;28;20445;-81
2023/02/06 10:42:22;;;;;;;;;;;;;;;;;;4967070;28;19918;-81
2023/02/06 10:44:48;;;;;;;;;;;;;;;;;;4980222;28;19922;-81
2023/02/06 10:47:14;;;;;;;;;;;;;;;;;;4982120;28;19930;-81
2023/02/06 10:49:40;;;;;;;;;;;;;;;;;;4968885;28;19921;-81
2023/02/06 10:52:06;;;;;;;;;;;;;;;;;;4971147;28;19926;-81
2023/02/06 10:54:32;;;;;;;;;;;;;;;;;;4971609;28;20004;-81
2023/02/06 10:56:58;;;;;;;;;;;;;;;;;;4946225;28;20732;-82
2023/02/06 10:59:23;;;;;;;;;;;;;;;;;;4966510;28;19918;-82
2023/02/06 11:01:49;;;;;;;;;;;;;;;;;;4967098;28;20340;-82
2023/02/06 11:04:15;;;;;;;;;;;;;;;;;;4959081;28;20332;-82
2023/02/06 11:06:41;;;;;;;;;;;;;;;;;;4961899;28;20335;-81
2023/02/06 11:09:07;;;;;;;;;;;;;;;;;;4968200;28;19925;-82
2023/02/06 11:11:33;;;;;;;;;;;;;;;;;;4985947;28;19918;-81
2023/02/06 11:13:59;;;;;;;;;;;;;;;;;;4966417;28;19918;-83
2023/02/06 11:16:25;;;;;;;;;;;;;;;;;;4946475;28;19977;-82
2023/02/06 11:18:51;;;;;;;;;;;;;;;;;;4982760;28;20384;-82
2023/02/06 11:21:17;;;;;;;;;;;;;;;;;;4979980;28;19932;-81
2023/02/06 11:23:43;;;;;;;;;;;;;;;;;;4967770;28;19917;-82
2023/02/06 11:26:13;;;;;;;;;;;;;;;;;;4958652;28;20281;-82
2023/02/06 11:28:38;;;;;;;;;;;;;;;;;;4965486;28;20418;-81
2023/02/06 11:31:04;;;;;;;;;;;;;;;;;;4984489;28;20012;-81
2023/02/06 11:33:30;;;;;;;;;;;;;;;;;;4969971;28;20333;-82
2023/02/06 11:35:58;;;;;;;;;;;;;;;;;;4967039;28;19952;-82
2023/02/06 11:38:24;;;;;;;;;;;;;;;;;;4950105;28;19925;-82
2023/02/06 11:40:50;;;;;;;;;;;;;;;;;;4963745;28;20576;-82
2023/02/06 11:43:16;;;;;;;;;;;;;;;;;;4977662;28;19918;-82
2023/02/06 11:45:42;;;;;;;;;;;7.60;99.90;;;;;;4966561;28;19917;-82
2023/02/06 11:48:27;;;;;;;;;;;7.60;99.90;;;;;;4950952;28;19948;-82
2023/02/06 11:50:53;;;;;;;;;;;7.50;99.90;;;;;;4963167;28;19921;-82
2023/02/06 11:53:19;;;;;;;;;;;7.50;99.90;;;;;;4961361;28;19926;-82
2023/02/06 11:55:45;;;;;;;;;;;7.50;99.90;;;;;;5005158;23;20409;-74
2023/02/06 11:58:11;;;;;;;;;;;7.50;99.90;;;;;;5005593;28;19924;-74
2023/02/06 12:00:40;;;;;;;;;;;7.50;99.90;;;;;;5007713;28;19925;-74
2023/02/06 12:03:27;;;;;;;;;;;7.50;99.90;;;;;;5023190;28;19921;-74
2023/02/06 12:05:53;;;;;;;;;;;7.60;99.90;;;;;;5016738;28;20031;-74
2023/02/06 12:08:20;;;;;;;;;;;7.60;99.90;;;;;;5006783;28;20009;-74
2023/02/06 12:10:51;;;;;;;;;;;7.60;99.90;;;;;;5004935;28;19920;-74
2023/02/06 12:13:19;;;;;;;;;;;7.70;99.90;;;;;;5000177;28;20277;-74
2023/02/06 12:15:51;;;;;;;;;;;7.60;99.90;;;;;;5003093;28;19925;-74
2023/02/06 12:18:22;;;;;;;;;;;7.60;99.90;;;;;;5009137;28;20004;-75
2023/02/06 12:20:48;;;;;;;;;;;7.60;99.90;;;;;;5018757;28;20396;-75
2023/02/06 12:23:20;;;;;;;;;;;7.70;99.90;;;;;;4992674;28;20131;-74
2023/02/06 12:25:48;;;;;;;;;;;7.70;99.90;;;;;;5005276;28;20350;-75
2023/02/06 12:28:17;;;;;;;;;;;7.70;99.90;;;;;;5003264;28;20200;-73
2023/02/06 12:30:54;;;;;;;;;;;7.80;99.90;;;;;;5021698;28;19917;-73
2023/02/06 12:33:35;;;;;;;;;;;7.80;99.90;;;;;;5005465;28;19940;-73
2023/02/06 12:36:02;;;;;;;;;;;7.80;99.90;;;;;;5022181;28;19924;-74
2023/02/06 12:38:36;;;;;;;;;;;7.90;99.90;;;;;;5008486;28;20620;-73
2023/02/06 12:41:21;;;;;;;;;;;7.80;99.90;;;;;;4998015;28;20303;-74
2023/02/06 12:43:49;;;;;;;;;;;7.80;99.90;;;;;;5004598;28;19935;-73
2023/02/06 12:46:17;;;;;;;;;;;7.90;99.90;;;;;;5018652;28;20009;-73
2023/02/06 12:48:46;;;;;;;;;;;8.00;99.90;;;;;;5007307;28;19925;-74
2023/02/06 12:51:21;;;;;;;;;;;8.00;99.90;;;;;;5005133;28;20043;-74
2023/02/06 12:53:50;;;;;;;;;;;8.00;99.90;;;;;;5006950;28;19921;-74
2023/02/06 12:56:34;;;;;;;;;;;7.90;99.90;;;;;;5008711;28;20008;-74
2023/02/06 12:59:12;;;;;;;;;;;7.90;99.90;;;;;;5002988;28;19940;-75
2023/02/06 13:01:40;;;;;;;;;;;7.90;99.90;;;;;;5018494;28;19967;-74
2023/02/06 13:04:12;;;;;;;;;;;7.80;99.90;;;;;;5008403;28;19979;-74
2023/02/06 13:06:42;;;;;;;;;;;7.90;99.90;;;;;;4993251;28;19916;-74
2023/02/06 13:09:31;;;;;;;;;;;7.90;99.90;;;;;;5023422;28;20316;-74
2023/02/06 13:12:19;;;;;;;;;;;8.00;99.90;;;;;;5018681;28;20288;-74
2023/02/06 13:14:49;;;;;;;;;;;8.00;99.90;;;;;;5012564;28;19924;-74
2023/02/06 13:17:18;;;;;;;;;;;8.10;99.90;;;;;;5004271;28;19917;-73
2023/02/06 13:19:43;;;;;;;;;;;8.10;99.90;;;;;;5003845;28;20411;-73
2023/02/06 13:22:09;;;;;;;;;;;8.10;99.90;;;;;;4993660;28;20015;-73
2023/02/06 13:24:45;;;;;;;;;;;8.10;99.90;;;;;;4980480;28;20049;-73
2023/02/06 13:27:12;;;;;;;;;;;8.50;99.90;;;;;;5006939;28;19964;-73
2023/02/06 13:30:01;;;;;;;;;;;8.30;99.90;;;;;;5005604;28;19924;-76
2023/02/06 13:32:30;;;;;;;;;;;8.30;99.90;;;;;;5002299;28;19921;-75
2023/02/06 13:35:05;;;;;;;;;;;8.40;99.90;;;;;;5006013;28;19917;-75
2023/02/06 13:37:41;;;;;;;;;;;8.40;99.90;;;;;;4990655;28;20015;-74
2023/02/06 13:40:15;;;;;;;;;;;8.30;99.90;;;;;;5021856;28;19921;-74
2023/02/06 13:42:50;;;;;;;;;;;8.20;99.90;;;;;;5003440;28;20015;-74
2023/02/06 13:45:35;;;;;;;;;;;8.20;99.90;;;;;;5009068;28;20003;-74
2023/02/06 13:48:13;;;;;;;;;;;8.10;99.90;;;;;;4993836;28;20409;-74
2023/02/06 13:50:42;;;;;;;;;;;8.10;99.90;;;;;;5004246;28;20039;-74
2023/02/06 13:53:29;;;;;;;;;;;8.10;99.90;;;;;;5005950;28;19921;-74
2023/02/06 13:56:04;;;;;;;;;;;8.10;99.90;;;;;;5001214;28;19987;-74
2023/02/06 13:58:37;;;;;;;;;;;8.10;99.90;;;;;;5002197;28;20011;-75
2023/02/06 14:01:09;;;;;;;;;;;8.10;99.90;;;;;;5002215;28;20336;-74
2023/02/06 14:03:37;;;;;;;;;;;8.20;99.90;;;;;;5002790;28;20306;-74
2023/02/06 14:06:16;;;;;;;;;;;8.20;99.90;;;;;;4987411;28;20437;-74
2023/02/06 14:08:44;;;;;;;;;;;8.30;99.90;;;;;;4986844;28;20863;-74
2023/02/06 14:11:16;;;;;;;;;;;8.30;99.90;;;;;;5007764;28;19928;-75
2023/02/06 14:13:41;;;;;;;;;;;8.30;99.90;;;;;;4997693;28;19924;-76
2023/02/06 14:16:29;;;;;;;;;;;8.30;99.90;;;;;;5005443;28;19916;-73
2023/02/06 14:19:13;;;;;;;;;;;8.20;99.90;;;;;;4984787;28;20018;-74
2023/02/06 14:21:59;;;;;;;;;;;8.20;99.90;;;;;;4998243;28;19928;-74
2023/02/06 14:24:26;;;;;;;;;;;8.10;99.90;;;;;;4964236;28;19929;-75
2023/02/06 14:27:14;;;;;;;;;;;8.10;99.90;;;;;;5001931;28;20629;-74
2023/02/06 14:30:03;;;;;;;;;;;8.00;99.90;;;;;;5025001;28;19917;-73
2023/02/06 14:32:47;;;;;;;;;;;8.00;99.90;;;;;;4989768;28;19921;-73
2023/02/06 14:35:16;;;;;;;;;;;7.90;99.90;;;;;;5000772;28;19917;-73
2023/02/06 14:37:47;;;;;;;;;;;7.80;99.90;;;;;;5003556;28;19925;-76
2023/02/06 14:40:19;;;;;;;;;;;7.80;99.90;;;;;;4989206;28;19916;-73
2023/02/06 14:42:46;;;;;;;;;;;7.80;99.90;;;;;;4999795;28;19925;-74
2023/02/06 14:45:20;;;;;;;;;;;7.80;99.90;;;;;;4992223;28;19917;-74
2023/02/06 14:47:46;;;;;;;;;;;7.80;99.90;;;;;;5017505;28;19921;-74
2023/02/06 14:50:17;;;;;;;;;;;7.90;99.90;;;;;;4990401;28;20162;-74
2023/02/06 14:52:44;;;;;;;;;;;8.00;99.90;;;;;;5011371;28;19921;-74
2023/02/06 14:55:30;;;;;;;;;;;8.00;99.90;;;;;;5018885;28;19924;-74
2023/02/06 14:57:55;;;;;;;;;;;8.00;99.90;;;;;;4991070;28;19921;-74
2023/02/06 15:00:21;;;;;;;;;;;8.00;99.90;;;;;;4996962;28;20468;-74
2023/02/06 15:03:00;;;;;;;;;;;8.00;99.90;;;;;;5001239;28;20349;-74
2023/02/06 15:05:27;;;;;;;;;;;8.00;99.90;;;;;;5002793;28;20382;-74
2023/02/06 15:07:57;;;;;;;;;;;8.10;99.90;;;;;;4981061;28;19932;-74
2023/02/06 15:10:26;;;;;;;;;;;8.10;99.90;;;;;;5003186;28;19917;-74
2023/02/06 15:12:52;;;;;;;;;;;8.10;99.90;;;;;;5003208;28;20015;-74
2023/02/06 15:15:20;;;;;;;;;;;8.10;99.90;;;;;;5002999;28;19928;-74
2023/02/06 15:17:56;;;;;;;;;;;8.10;99.90;;;;;;4994974;28;20296;-74
2023/02/06 15:20:29;;;;;;;;;;;8.10;99.90;;;;;;5002239;28;19917;-74
2023/02/06 15:22:56;;;;;;;;;;;8.10;99.90;;;;;;5002277;28;19924;-74
2023/02/06 15:25:40;;;;;;;;;;;8.10;99.90;;;;;;4997977;28;19921;-74
2023/02/06 15:28:08;;;;;;;;;;;8.00;99.90;;;;;;5014057;28;19979;-74
2023/02/06 15:30:35;;;;;;;;;;;8.00;99.90;;;;;;4994729;28;20442;-74
2023/02/06 15:33:02;;;;;;;;;;;8.00;99.90;;;;;;5007778;28;20399;-74
2023/02/06 15:35:31;;;;;;;;;;;8.00;99.90;;;;;;5006483;28;20415;-74
2023/02/06 15:38:01;;;;;;;;;;;8.00;99.90;;;;;;5010646;28;19924;-74
2023/02/06 15:40:34;;;;;;;;;;;8.00;99.90;;;;;;5004578;28;19917;-74
2023/02/06 15:43:00;;;;;;;;;;;8.00;99.90;;;;;;4998691;28;19927;-74
2023/02/06 15:45:28;;;;;;;;;;;8.00;99.90;;;;;;5005164;28;19916;-74
2023/02/06 15:47:54;;;;;;;;;;;8.00;99.90;;;;;;5003092;28;21030;-74
2023/02/06 15:50:24;;;;;;;;;;;8.00;99.90;;;;;;4998287;28;19917;-74
2023/02/06 15:52:50;;;;;;;;;;;7.90;99.90;;;;;;5015804;28;20392;-74
2023/02/06 15:55:27;;;;;;;;;;;7.90;99.90;;;;;;4998636;28;20000;-74
2023/02/06 15:57:53;;;;;;;;;;;;;;;;;;5003563;28;19921;-74
2023/02/06 16:00:22;;;;;;;;;;;;;;;;;;4999231;28;19931;-74
2023/02/06 16:02:48;;;;;;;;;;;;;;;;;;5003141;28;19924;-74
2023/02/06 16:05:13;;;;;;;;;;;;;;;;;;5002144;28;19917;-74
2023/02/06 16:07:39;;;;;;;;;;;;;;;;;;5000284;28;19944;-74